Time;durP1;ratioP1;P1;durP2;ratioP2;P2;SDS_P1;SDS_P2;PMS_P1;PMS_P2;Temp;Humidity;BMP_temperature;BMP_pressure;BME280_temperature;BME280_humidity;BME280_pressure;Samples;Min_cycle;Max_cycle;Signal;HPM_P1;HPM_P2
2021/06/14 00:00:56;;;;;;;;;5.50;5.50;;;;;23.87;36.22;101716.34;4829794;29;45324;-68
2021/06/14 00:03:21;;;;;;;;;3.75;3.75;;;;;23.75;36.16;101699.00;4798002;29;45518;-68
2021/06/14 00:05:47;;;;;;;;;3.25;3.25;;;;;23.88;36.32;101722.69;4829544;29;45394;-68
2021/06/14 00:08:17;;;;;;;;;5.00;5.00;;;;;23.85;36.14;101724.63;4829845;29;45241;-68
2021/06/14 00:10:43;;;;;;;;;5.00;5.00;;;;;23.85;36.16;101730.09;4829732;29;45307;-68
2021/06/14 00:13:08;;;;;;;;;4.00;4.00;;;;;23.85;35.99;101721.91;4829520;29;45171;-68
2021/06/14 00:15:34;;;;;;;;;4.00;4.00;;;;;23.85;36.30;101721.06;4811938;29;54329;-68
2021/06/14 00:17:59;;;;;;;;;6.00;6.00;;;;;23.82;36.39;101718.53;4829178;29;45410;-68
2021/06/14 00:20:25;;;;;;;;;5.00;5.00;;;;;23.83;36.33;101725.75;4828862;29;57257;-68
2021/06/14 00:22:50;;;;;;;;;7.25;5.00;;;;;23.80;36.49;101726.78;4829554;29;45477;-68
2021/06/14 00:25:19;;;;;;;;;3.00;3.00;;;;;23.78;36.54;101722.47;4829209;29;45890;-68
2021/06/14 00:27:45;;;;;;;;;5.75;5.75;;;;;23.76;36.80;101725.28;4828363;29;45210;-68
2021/06/14 00:30:11;;;;;;;;;3.00;3.00;;;;;23.81;37.33;101734.00;4826101;29;65999;-68
2021/06/14 00:32:36;;;;;;;;;6.00;6.00;;;;;23.78;36.73;101733.38;4819530;29;45229;-68
2021/06/14 00:35:02;;;;;;;;;5.50;4.00;;;;;23.72;37.02;101721.03;4812448;29;52435;-68
2021/06/14 00:37:27;;;;;;;;;2.50;2.50;;;;;23.75;37.27;101737.16;4797714;29;45264;-68
2021/06/14 00:39:52;;;;;;;;;5.00;5.00;;;;;23.66;37.35;101718.78;4828048;29;69270;-68
2021/06/14 00:42:18;;;;;;;;;5.00;5.00;;;;;23.68;37.61;101728.56;4828763;29;61613;-68
2021/06/14 00:44:43;;;;;;;;;7.00;5.25;;;;;23.67;37.32;101732.28;4811734;29;72763;-68
2021/06/14 00:47:08;;;;;;;;;5.75;4.00;;;;;23.66;37.50;101738.72;4828224;29;64039;-68
2021/06/14 00:49:34;;;;;;;;;3.25;3.25;;;;;23.63;37.34;101735.34;4812178;29;53307;-68
2021/06/14 00:51:59;;;;;;;;;4.75;4.75;;;;;23.60;37.45;101732.84;4829366;29;45412;-68
2021/06/14 00:54:25;;;;;;;;;4.00;4.00;;;;;23.59;37.73;101728.34;4812070;29;54332;-68
2021/06/14 00:56:50;;;;;;;;;4.50;4.00;;;;;23.59;37.71;101737.41;4812736;29;45391;-68
2021/06/14 00:59:15;;;;;;;;;7.00;5.25;;;;;23.53;37.44;101724.22;4812548;29;45254;-68
2021/06/14 01:01:41;;;;;;;;;5.50;5.50;;;;;23.53;37.82;101723.38;4827997;29;68466;-68
2021/06/14 01:04:06;;;;;;;;;4.75;4.75;;;;;23.51;37.95;101726.19;4812202;29;46106;-68
2021/06/14 01:06:32;;;;;;;;;4.50;4.50;;;;;23.51;37.69;101728.91;4828379;29;63710;-68
2021/06/14 01:08:57;;;;;;;;;4.50;4.50;;;;;23.49;37.70;101728.16;4828979;29;45439;-68
2021/06/14 01:11:41;;;;;;;;;3.50;3.50;;;;;23.48;37.78;101726.41;4827539;29;45346;-68
2021/06/14 01:14:29;;;;;;;;;2.25;2.25;;;;;23.34;37.68;101708.34;4813289;29;46217;-68
2021/06/14 01:17:02;;;;;;;;;5.50;4.00;;;;;23.45;37.80;101723.91;4813777;29;45706;-68
2021/06/14 01:19:45;;;;;;;;;4.00;4.00;;;;;23.43;38.00;101732.19;4812274;29;45465;-68
2021/06/14 01:22:42;;;;;;;;;5.25;5.25;;;;;23.39;38.04;101727.06;4828675;29;45287;-68
2021/06/14 01:25:22;;;;;;;;;3.50;3.50;;;;;23.31;38.21;101714.84;4828506;29;46384;-68
2021/06/14 01:27:50;;;;;;;;;5.75;5.00;;;;;23.29;38.34;101710.50;4802052;29;45432;-68
2021/06/14 01:30:18;;;;;;;;;6.00;5.00;;;;;23.28;38.65;101712.34;4812409;29;45376;-68
2021/06/14 01:32:43;;;;;;;;;4.00;4.00;;;;;23.28;39.00;101716.94;4811942;29;45423;-68
2021/06/14 01:35:10;;;;;;;;;5.00;5.00;;;;;23.25;38.98;101708.97;4811517;29;58524;-68
2021/06/14 01:37:40;;;;;;;;;5.00;5.00;;;;;23.24;38.81;101712.69;4796988;29;45409;-68
2021/06/14 01:40:06;;;;;;;;;5.50;4.75;;;;;23.19;39.03;101707.56;4812197;29;45506;-68
2021/06/14 01:42:31;;;;;;;;;5.00;5.00;;;;;23.20;39.54;101713.88;4796892;29;45638;-68
2021/06/14 01:44:57;;;;;;;;;4.00;4.00;;;;;23.14;39.43;101687.97;4796667;29;45431;-68
2021/06/14 01:47:22;;;;;;;;;6.50;4.75;;;;;23.12;39.60;101687.16;4795650;29;65023;-68
2021/06/14 01:49:47;;;;;;;;;6.50;6.50;;;;;23.04;39.61;101678.66;4812018;29;45374;-68
2021/06/14 01:52:14;;;;;;;;;6.00;5.00;;;;;23.06;39.77;101682.16;4811426;29;58173;-68
2021/06/14 01:54:39;;;;;;;;;6.00;5.00;;;;;23.08;39.74;101683.78;4811789;29;46223;-68
2021/06/14 01:57:05;;;;;;;;;7.25;5.25;;;;;23.02;39.92;101670.59;4795621;29;72721;-68
2021/06/14 01:59:33;;;;;;;;;7.25;5.25;;;;;23.03;40.43;101676.91;4796869;29;45329;-68
2021/06/14 02:01:59;;;;;;;;;4.50;4.50;;;;;22.95;39.83;101661.09;4797028;29;45295;-68
2021/06/14 02:04:24;;;;;;;;;7.00;7.00;;;;;22.97;40.34;101667.34;4796249;29;45250;-68
2021/06/14 02:06:50;;;;;;;;;7.75;6.75;;;;;22.97;40.35;101674.59;4827866;29;52836;-68
2021/06/14 02:09:22;;;;;;;;;9.00;7.00;;;;;22.90;40.72;101660.56;4796485;29;45387;-68
2021/06/14 02:11:49;;;;;;;;;5.25;5.25;;;;;22.88;40.57;101654.34;4796942;29;45206;-68
2021/06/14 02:14:20;;;;;;;;;7.50;6.25;;;;;22.91;40.54;101660.44;4796564;29;45294;-68
2021/06/14 02:16:46;;;;;;;;;6.25;6.25;;;;;22.89;41.23;101659.69;4811317;29;45309;-68
2021/06/14 02:19:12;;;;;;;;;7.75;6.75;;;;;22.83;41.09;101649.22;4811421;29;45203;-68
2021/06/14 02:21:38;;;;;;;;;6.75;6.75;;;;;22.81;40.89;101644.88;4808554;29;45174;-68
2021/06/14 02:24:04;;;;;;;;;8.00;8.00;;;;;22.78;41.21;101639.66;4795368;29;46444;-68
2021/06/14 02:26:29;;;;;;;;;6.00;5.75;;;;;22.75;41.30;101640.72;4827812;29;45238;-68
2021/06/14 02:28:55;;;;;;;;;6.75;6.75;;;;;22.76;41.04;101639.75;4826891;29;45495;-68
2021/06/14 02:31:21;;;;;;;;;5.75;5.75;;;;;22.76;41.39;101643.34;4827074;29;65275;-68
2021/06/14 02:33:47;;;;;;;;;8.00;8.00;;;;;22.75;41.60;101643.44;4811236;29;45427;-68
2021/06/14 02:36:13;;;;;;;;;6.50;6.50;;;;;22.68;41.32;101629.38;4811635;29;45491;-68
2021/06/14 02:38:39;;;;;;;;;6.00;6.00;;;;;22.70;41.08;101627.47;4796788;29;58478;-68
2021/06/14 02:41:04;;;;;;;;;8.75;7.25;;;;;22.67;41.77;101629.50;4814451;29;45349;-68
2021/06/14 02:43:30;;;;;;;;;8.50;6.75;;;;;22.66;41.45;101620.47;4798619;29;61795;-67
2021/06/14 02:45:55;;;;;;;;;9.00;8.00;;;;;22.61;41.77;101617.19;4814603;29;45315;-68
2021/06/14 02:48:20;;;;;;;;;8.00;7.00;;;;;22.65;41.90;101624.16;4798785;29;45291;-68
2021/06/14 02:50:46;;;;;;;;;8.00;8.00;;;;;22.56;41.93;101617.50;4814483;29;45335;-68
2021/06/14 02:53:12;;;;;;;;;9.25;8.25;;;;;22.59;41.91;101619.16;4798888;29;60304;-68
2021/06/14 02:56:08;;;;;;;;;7.50;7.50;;;;;22.61;42.16;101635.38;4814389;29;45336;-68
2021/06/14 02:58:36;;;;;;;;;7.00;7.00;;;;;22.58;42.30;101629.16;4816350;29;45308;-68
2021/06/14 03:01:02;;;;;;;;;6.25;6.25;;;;;22.53;41.73;101620.44;4814098;29;45431;-68
2021/06/14 03:03:28;;;;;;;;;8.00;7.00;;;;;22.53;42.11;101623.16;4813901;29;48219;-68
2021/06/14 03:05:53;;;;;;;;;5.25;5.25;;;;;22.52;42.12;101632.31;4829518;29;69293;-68
2021/06/14 03:08:19;;;;;;;;;9.25;7.25;;;;;22.36;42.40;101607.13;4822661;29;45309;-68
2021/06/14 03:10:44;;;;;;;;;10.50;8.25;;;;;22.45;42.13;101622.81;4813612;29;53261;-68
2021/06/14 03:13:10;;;;;;;;;5.75;5.25;;;;;22.43;41.40;101624.78;4820701;29;48576;-68
2021/06/14 03:15:35;;;;;;;;;5.75;5.00;;;;;22.33;41.03;101616.38;4815948;29;45357;-68
2021/06/14 03:18:01;;;;;;;;;6.00;5.00;;;;;22.39;42.17;101629.56;4829004;29;45510;-68
2021/06/14 03:20:27;;;;;;;;;5.00;5.00;;;;;22.39;41.63;101629.56;4798481;29;45615;-68
2021/06/14 03:22:53;;;;;;;;;7.00;7.00;;;;;22.36;42.27;101627.03;4813086;29;73859;-68
2021/06/14 03:25:18;;;;;;;;;3.75;3.75;;;;;22.33;42.22;101631.81;4802122;29;45460;-68
2021/06/14 03:27:44;;;;;;;;;5.00;5.00;;;;;22.37;42.50;101626.06;4810586;29;53010;-68
2021/06/14 03:30:10;;;;;;;;;6.00;5.25;;;;;22.32;42.22;101621.91;4828939;29;45211;-68
2021/06/14 03:32:39;;;;;;;;;5.25;5.25;;;;;22.35;41.91;101632.59;4818696;29;46593;-68
2021/06/14 03:35:05;;;;;;;;;5.25;5.25;;;;;22.32;42.42;101624.63;4817038;29;45562;-68
2021/06/14 03:37:32;;;;;;;;;6.25;6.00;;;;;22.31;42.54;101628.34;4798676;29;45345;-68
2021/06/14 03:39:58;;;;;;;;;7.25;7.25;;;;;22.20;42.55;101613.59;4780205;29;45820;-68
2021/06/14 03:42:29;;;;;;;;;7.50;6.50;;;;;22.29;41.98;101625.72;4819737;29;45950;-68
2021/06/14 03:44:54;;;;;;;;;5.50;5.00;;;;;22.30;42.00;101640.19;4830006;29;45331;-68
2021/06/14 03:47:19;;;;;;;;;5.25;5.25;;;;;22.29;42.37;101630.31;4829784;29;45293;-68
2021/06/14 03:49:45;;;;;;;;;6.75;6.25;;;;;22.25;42.27;101631.44;4796350;29;70188;-68
2021/06/14 03:52:10;;;;;;;;;5.00;5.00;;;;;22.29;42.73;101643.91;4812736;29;63618;-68
2021/06/14 03:54:36;;;;;;;;;5.00;5.00;;;;;22.21;42.16;101626.19;4828989;29;67995;-68
2021/06/14 03:57:01;;;;;;;;;6.00;4.75;;;;;22.19;42.15;101625.44;4813505;29;45331;-68
2021/06/14 03:59:26;;;;;;;;;4.00;4.00;;;;;22.24;42.47;101649.59;4812961;29;53537;-68
2021/06/14 04:01:52;;;;;;;;;6.00;6.00;;;;;22.23;42.08;101644.28;4812331;29;64965;-68
2021/06/14 04:04:32;;;;;;;;;6.75;6.50;;;;;22.18;42.26;101642.72;4812617;29;60437;-68
2021/06/14 04:06:58;;;;;;;;;6.50;5.00;;;;;22.21;42.53;101652.53;4815183;29;45507;-68
2021/06/14 04:09:23;;;;;;;;;4.25;4.25;;;;;22.19;42.95;101649.06;4829687;29;45288;-67
2021/06/14 04:11:49;;;;;;;;;6.25;5.50;;;;;22.11;43.44;101644.13;4828818;29;68550;-68
2021/06/14 04:14:14;;;;;;;;;5.00;4.50;;;;;22.15;43.61;101642.94;4829573;29;45315;-68
2021/06/14 04:16:39;;;;;;;;;7.00;6.75;;;;;22.11;43.87;101641.41;4829537;29;45621;-68
2021/06/14 04:19:05;;;;;;;;;5.75;4.75;;;;;22.12;43.91;101643.16;4829064;29;45616;-68
2021/06/14 04:21:30;;;;;;;;;7.50;6.75;;;;;22.06;43.75;101635.38;4828571;29;73234;-68
2021/06/14 04:23:55;;;;;;;;;5.00;5.00;;;;;22.08;44.18;101649.75;4812174;29;64784;-68
2021/06/14 04:26:21;;;;;;;;;7.25;4.75;;;;;22.01;43.65;101637.56;4829742;29;45296;-68
2021/06/14 04:28:46;;;;;;;;;7.00;5.50;;;;;22.05;43.76;101655.38;4829256;29;45615;-68
2021/06/14 04:31:12;;;;;;;;;3.50;3.50;;;;;21.95;44.21;101638.84;4812180;29;63779;-68
2021/06/14 04:33:37;;;;;;;;;5.50;5.00;;;;;21.98;44.01;101641.31;4811942;29;60913;-68
2021/06/14 04:36:04;;;;;;;;;8.00;6.75;;;;;21.96;44.24;101647.84;4828698;29;63789;-68
2021/06/14 04:38:30;;;;;;;;;4.00;4.00;;;;;21.96;44.48;101645.13;4797752;29;45452;-68
2021/06/14 04:40:55;;;;;;;;;7.00;6.00;;;;;21.97;44.92;101653.19;4797468;29;46184;-68
2021/06/14 04:43:20;;;;;;;;;6.00;6.00;;;;;21.92;44.43;101643.59;4827030;29;64498;-68
2021/06/14 04:45:46;;;;;;;;;6.25;5.50;;;;;21.96;44.30;101665.03;4812147;29;62520;-68
2021/06/14 04:48:11;;;;;;;;;4.75;4.75;;;;;21.97;44.38;101665.94;4796301;29;63734;-68
2021/06/14 04:50:36;;;;;;;;;6.00;6.00;;;;;21.97;44.51;101679.50;4828551;29;64639;-68
2021/06/14 04:53:02;;;;;;;;;5.75;5.75;;;;;21.95;45.15;101674.19;4828634;29;49594;-68
2021/06/14 04:55:27;;;;;;;;;5.50;5.25;;;;;21.92;44.90;101659.88;4828485;29;61190;-68
2021/06/14 04:57:52;;;;;;;;;5.00;4.50;;;;;21.93;45.35;101661.66;4828836;29;45405;-68
2021/06/14 05:00:19;;;;;;;;;7.25;6.00;;;;;21.93;44.92;101665.22;4828396;29;65580;-68
2021/06/14 05:02:45;;;;;;;;;6.00;6.00;;;;;21.87;45.25;101654.78;4828430;29;45516;-67
2021/06/14 05:05:10;;;;;;;;;7.50;6.00;;;;;21.92;44.99;101678.91;4797755;29;45523;-68
2021/06/14 05:07:36;;;;;;;;;8.00;7.00;;;;;21.89;44.88;101676.44;4828669;29;45292;-68
2021/06/14 05:10:01;;;;;;;;;5.75;5.75;;;;;21.92;45.74;101689.78;4828107;29;64031;-68
2021/06/14 05:12:27;;;;;;;;;6.75;6.00;;;;;21.84;45.08;101674.00;4827770;29;65918;-68
2021/06/14 05:14:52;;;;;;;;;7.50;6.50;;;;;21.90;45.04;101686.31;4811370;29;67783;-68
2021/06/14 05:17:17;;;;;;;;;5.50;5.50;;;;;21.91;45.54;101698.94;4828205;29;45436;-68
2021/06/14 05:19:46;;;;;;;;;7.50;6.75;;;;;21.87;45.09;101694.66;4827664;29;64594;-68
2021/06/14 05:22:11;;;;;;;;;7.25;7.25;;;;;21.91;45.67;101697.09;4811459;29;66389;-68
2021/06/14 05:24:37;;;;;;;;;6.25;6.25;;;;;21.89;45.85;101698.16;4812447;29;45387;-68
2021/06/14 05:27:03;;;;;;;;;6.50;6.50;;;;;21.92;45.72;101701.56;4827934;29;54309;-68
2021/06/14 05:29:28;;;;;;;;;6.25;6.00;;;;;21.91;45.98;101701.66;4812257;29;46213;-68
2021/06/14 05:31:54;;;;;;;;;8.00;6.00;;;;;21.81;45.95;101682.34;4827769;29;51641;-68
2021/06/14 05:34:19;;;;;;;;;7.25;7.00;;;;;21.86;45.56;101692.94;4836619;29;45462;-68
2021/06/14 05:36:44;;;;;;;;;7.00;6.00;;;;;21.95;45.45;101703.19;4796891;29;45333;-68
2021/06/14 05:39:10;;;;;;;;;6.50;6.50;;;;;21.92;45.90;101689.78;4828398;29;47111;-68
2021/06/14 05:41:35;;;;;;;;;5.00;5.00;;;;;21.95;45.38;101692.31;4827183;29;70539;-68
2021/06/14 05:44:01;;;;;;;;;8.00;6.00;;;;;21.97;45.43;101691.25;4826361;29;68807;-68
2021/06/14 05:46:26;;;;;;;;;7.25;7.25;;;;;21.99;45.83;101697.44;4827365;29;65552;-68
2021/06/14 05:48:51;;;;;;;;;6.75;6.75;;;;;22.02;46.00;101693.69;4827517;29;65688;-68
2021/06/14 05:51:17;;;;;;;;;7.25;6.00;;;;;22.01;46.01;101679.19;4827419;29;66206;-68
2021/06/14 05:53:42;;;;;;;;;6.25;6.25;;;;;22.00;45.60;101676.56;4827776;29;59112;-68
2021/06/14 05:56:08;;;;;;;;;7.00;7.00;;;;;22.02;45.47;101674.66;4810906;29;62335;-68
2021/06/14 05:58:33;;;;;;;;;7.25;7.00;;;;;22.02;45.22;101680.09;4811900;29;46023;-68
2021/06/14 06:00:58;;;;;;;;;5.00;5.00;;;;;22.07;45.27;101696.06;4828039;29;45275;-68
2021/06/14 06:03:24;;;;;;;;;8.25;8.00;;;;;22.05;45.82;101673.56;4827191;29;66300;-68
2021/06/14 06:05:49;;;;;;;;;7.25;7.00;;;;;22.11;45.22;101686.75;4826961;29;71866;-68
2021/06/14 06:08:15;;;;;;;;;6.25;6.25;;;;;22.11;45.60;101682.19;4828083;29;45872;-68
2021/06/14 06:10:40;;;;;;;;;6.50;6.50;;;;;22.15;44.95;101691.91;4810805;29;67049;-68
2021/06/14 06:13:05;;;;;;;;;8.00;7.50;;;;;22.06;44.81;101687.03;4828000;29;62795;-68
2021/06/14 06:15:31;;;;;;;;;9.00;8.75;;;;;22.09;44.62;101700.44;4798608;29;65861;-68
2021/06/14 06:17:56;;;;;;;;;7.50;7.50;;;;;22.08;44.69;101701.41;4813879;29;55110;-68
2021/06/14 06:20:22;;;;;;;;;8.25;8.25;;;;;22.07;44.16;101705.13;4814434;29;45688;-68
2021/06/14 06:22:47;;;;;;;;;8.00;7.00;;;;;22.01;43.64;101695.50;4799704;29;45664;-68
2021/06/14 06:25:17;;;;;;;;;7.50;5.25;;;;;22.08;44.25;101705.97;4830988;29;45374;-68
2021/06/14 06:27:43;;;;;;;;;7.00;7.00;;;;;22.07;44.03;101699.69;4829714;29;45386;-68
2021/06/14 06:30:09;;;;;;;;;5.50;5.25;;;;;22.10;43.94;101691.31;4799397;29;45593;-68
2021/06/14 06:32:35;;;;;;;;;9.25;7.25;;;;;21.98;43.90;101678.53;4814277;29;45359;-68
2021/06/14 06:35:00;;;;;;;;;7.25;7.25;;;;;22.01;44.12;101671.03;4813888;29;61945;-68
2021/06/14 06:37:26;;;;;;;;;7.00;7.00;;;;;22.07;44.25;101683.38;4813948;29;62266;-68
2021/06/14 06:39:51;;;;;;;;;8.00;7.75;;;;;22.14;44.20;101687.41;4813335;29;63993;-68
2021/06/14 06:42:16;;;;;;;;;9.25;8.00;;;;;22.15;43.44;101678.31;4830393;29;57582;-68
2021/06/14 06:44:42;;;;;;;;;6.25;6.25;;;;;22.06;43.75;101659.88;4830616;29;45391;-68
2021/06/14 06:47:07;;;;;;;;;9.00;8.75;;;;;22.21;43.67;101686.03;4798109;29;66167;-68
2021/06/14 06:49:33;;;;;;;;;7.25;6.00;;;;;22.28;44.08;101685.63;4829723;29;71638;-68
2021/06/14 06:51:58;;;;;;;;;7.00;7.00;;;;;22.31;44.08;101680.00;4814498;29;45494;-68
2021/06/14 06:54:24;;;;;;;;;11.00;8.50;;;;;22.35;43.78;101682.44;4830642;29;45359;-69
2021/06/14 06:56:50;;;;;;;;;7.75;7.75;;;;;22.32;43.76;101668.16;4829439;29;73626;-69
2021/06/14 06:59:16;;;;;;;;;7.75;7.75;;;;;22.41;44.10;101681.13;4814259;29;45615;-68
2021/06/14 07:01:41;;;;;;;;;8.75;8.75;;;;;22.41;43.79;101672.97;4830558;29;45459;-69
2021/06/14 07:04:07;;;;;;;;;7.75;7.75;;;;;22.45;43.19;101676.34;4813886;29;45271;-69
2021/06/14 07:06:33;;;;;;;;;11.25;10.25;;;;;22.52;42.90;101684.00;4830699;29;45990;-69
2021/06/14 07:08:58;;;;;;;;;11.50;8.00;;;;;22.57;42.92;101681.84;4830407;29;45224;-69
2021/06/14 07:11:27;;;;;;;;;9.00;7.00;;;;;22.62;42.93;101676.09;4831048;29;45771;-69
2021/06/14 07:13:53;;;;;;;;;5.75;5.75;;;;;22.67;43.18;101681.19;4830149;29;45651;-69
2021/06/14 07:16:18;;;;;;;;;10.50;10.50;;;;;22.69;43.23;101671.09;4828735;29;46224;-69
2021/06/14 07:18:44;;;;;;;;;9.00;8.25;;;;;22.69;42.94;101668.38;4829778;29;45495;-69
2021/06/14 07:21:09;;;;;;;;;7.50;7.00;;;;;22.69;43.01;101662.94;4813688;29;52583;-70
2021/06/14 07:23:35;;;;;;;;;6.50;6.50;;;;;22.69;42.61;101644.75;4829503;29;66172;-70
2021/06/14 07:26:00;;;;;;;;;10.50;9.00;;;;;22.84;42.48;101656.41;4829926;29;55599;-70
2021/06/14 07:28:25;;;;;;;;;9.00;7.00;;;;;22.91;42.54;101656.88;4829661;29;50686;-70
2021/06/14 07:30:51;;;;;;;;;8.00;7.00;;;;;22.94;42.10;101656.66;4829491;29;68488;-70
2021/06/14 07:33:16;;;;;;;;;7.50;7.00;;;;;23.03;42.16;101660.56;4829008;29;65054;-70
2021/06/14 07:35:41;;;;;;;;;12.00;8.75;;;;;23.10;42.18;101661.91;4830118;29;45231;-70
2021/06/14 07:38:07;;;;;;;;;9.75;8.00;;;;;23.13;41.98;101662.56;4830104;29;45182;-72
2021/06/14 07:40:32;;;;;;;;;10.75;9.00;;;;;23.18;41.88;101655.94;4813701;29;45533;-73
2021/06/14 07:42:58;;;;;;;;;7.50;7.50;;;;;23.27;42.10;101656.16;4830226;29;45146;-72
2021/06/14 07:45:24;;;;;;;;;7.50;7.50;;;;;23.39;42.42;101659.84;4829921;29;46101;-72
2021/06/14 07:47:51;;;;;;;;;9.75;8.75;;;;;23.51;42.11;101654.50;4798189;29;45402;-72
2021/06/14 07:50:16;;;;;;;;;7.00;7.00;;;;;23.59;42.01;101652.03;4798656;29;45357;-73
2021/06/14 07:52:42;;;;;;;;;7.75;7.75;;;;;23.68;41.85;101646.78;4813059;29;50368;-72
2021/06/14 07:55:08;;;;;;;;;8.00;7.25;;;;;23.74;41.93;101636.41;4813574;29;45930;-72
2021/06/14 07:57:33;;;;;;;;;8.25;8.00;;;;;23.85;41.22;101639.25;4812984;29;48109;-73
2021/06/14 07:59:58;;;;;;;;;5.75;5.75;;;;;23.86;41.12;101625.50;4812718;29;61465;-73
2021/06/14 08:02:24;;;;;;;;;7.00;7.00;;;;;23.98;40.92;101631.03;4829323;29;45329;-72
2021/06/14 08:04:49;;;;;;;;;11.50;9.75;;;;;24.12;40.61;101638.19;4829513;29;46084;-72
2021/06/14 08:07:15;;;;;;;;;8.75;7.25;;;;;24.14;40.99;101634.34;4829528;29;45395;-73
2021/06/14 08:09:40;;;;;;;;;7.00;7.00;;;;;24.26;40.30;101645.28;4829835;29;45803;-72
2021/06/14 08:12:06;;;;;;;;;8.25;8.25;;;;;24.26;40.01;101638.00;4829525;29;45447;-72
2021/06/14 08:14:32;;;;;;;;;7.25;6.75;;;;;24.29;40.17;101635.06;4779847;29;47249;-73
2021/06/14 08:16:58;;;;;;;;;5.75;5.25;;;;;24.34;40.04;101630.09;4812725;29;45293;-73
2021/06/14 08:19:38;;;;;;;;;8.50;7.50;;;;;24.45;40.78;101633.88;4816305;29;45475;-73
2021/06/14 08:25:07;;;;;;;;;7.50;6.50;;;;;24.67;39.97;101638.56;4802295;29;45434;-72
2021/06/14 08:27:39;;;;;;;;;5.50;5.50;;;;;24.70;40.23;101621.94;4828444;29;45662;-72
2021/06/14 08:30:07;;;;;;;;;6.50;6.50;;;;;24.80;39.48;101625.69;4797404;29;45419;-72
2021/06/14 08:32:33;;;;;;;;;8.75;8.75;;;;;24.84;39.62;101619.00;4797403;29;45447;-72
2021/06/14 08:34:58;;;;;;;;;10.75;9.00;;;;;24.94;39.82;101620.00;4797194;29;46886;-73
2021/06/14 08:37:23;;;;;;;;;7.50;7.50;;;;;24.92;39.12;101611.03;4811440;29;62864;-74
2021/06/14 08:39:49;;;;;;;;;10.00;7.00;;;;;24.99;38.75;101621.50;4828273;29;61139;-73
2021/06/14 08:42:15;;;;;;;;;8.00;8.00;;;;;25.06;38.84;101623.63;4813101;29;45329;-72
2021/06/14 08:44:41;;;;;;;;;6.25;6.25;;;;;25.13;38.93;101622.13;4797184;29;50470;-71
2021/06/14 08:47:07;;;;;;;;;7.25;7.25;;;;;25.13;38.17;101608.47;4828799;29;45319;-70
2021/06/14 08:49:32;;;;;;;;;6.00;6.00;;;;;25.15;38.18;101609.19;4797050;29;45274;-71
2021/06/14 08:51:58;;;;;;;;;10.00;8.50;;;;;25.13;38.59;101600.28;4796679;29;66938;-72
2021/06/14 08:54:24;;;;;;;;;5.50;5.00;;;;;25.25;37.93;101605.75;4828881;29;45171;-72
2021/06/14 08:56:49;;;;;;;;;5.75;5.75;;;;;25.26;37.57;101593.81;4806591;29;45322;-72
2021/06/14 08:59:14;;;;;;;;;6.25;6.25;;;;;25.36;37.99;101599.41;4811925;29;60968;-71
2021/06/14 09:01:40;;;;;;;;;7.50;7.00;;;;;25.30;37.28;101588.00;4828072;29;62009;-71
2021/06/14 09:04:05;;;;;;;;;7.25;7.00;;;;;25.43;37.47;101596.06;4828051;29;64669;-71
2021/06/14 09:06:30;;;;;;;;;8.25;8.25;;;;;25.46;37.82;101593.09;4828654;29;53945;-72
2021/06/14 09:08:57;;;;;;;;;10.25;9.00;;;;;25.47;37.10;101589.34;4828255;29;56656;-72
2021/06/14 09:11:23;;;;;;;;;5.25;5.25;;;;;25.50;36.78;101593.72;4828596;29;45540;-73
2021/06/14 09:13:48;;;;;;;;;8.25;7.75;;;;;25.54;36.83;101588.84;4828240;29;46078;-71
2021/06/14 09:16:15;;;;;;;;;9.00;8.00;;;;;25.56;36.93;101578.66;4827463;29;71415;-72
2021/06/14 09:18:42;;;;;;;;;7.00;7.00;;;;;25.64;36.80;101584.34;4812034;29;46536;-71
2021/06/14 09:21:09;;;;;;;;;9.50;8.00;;;;;25.66;36.84;101574.16;4815725;29;45516;-71
2021/06/14 09:23:55;;;;;;;;;8.00;7.50;;;;;25.74;36.19;101587.19;4807756;29;46069;-71
2021/06/14 09:26:37;;;;;;;;;8.25;6.75;;;;;25.63;35.88;101561.63;4819898;29;45373;-72
2021/06/14 09:29:26;;;;;;;;;6.00;5.50;;;;;25.77;35.76;101587.81;4804426;29;45282;-72
2021/06/14 09:32:02;;;;;;;;;6.50;5.75;;;;;25.77;35.11;101579.59;4825661;29;45508;-72
2021/06/14 09:34:39;;;;;;;;;7.25;4.75;;;;;25.74;35.59;101571.66;4797166;29;45424;-71
2021/06/14 09:37:06;;;;;;;;;8.50;6.00;;;;;25.82;34.93;101577.34;4785198;29;45775;-69
2021/06/14 09:39:35;;;;;;;;;8.25;7.00;;;;;25.83;35.28;101576.34;4828340;29;45170;-69
2021/06/14 09:42:10;;;;;;;;;6.25;6.25;;;;;25.94;35.66;101580.03;4794003;29;45496;-68
2021/06/14 09:44:35;;;;;;;;;9.00;6.00;;;;;25.95;34.92;101573.59;4811893;29;45497;-69
2021/06/14 09:47:02;;;;;;;;;5.50;5.50;;;;;25.97;34.84;101575.22;4795575;29;70658;-71
2021/06/14 09:49:28;;;;;;;;;7.00;7.00;;;;;26.01;34.56;101584.91;4814277;29;45481;-69
2021/06/14 09:51:53;;;;;;;;;5.50;5.50;;;;;26.02;33.66;101581.16;4814278;29;66017;-70
2021/06/14 09:54:29;;;;;;;;;8.00;5.00;;;;;26.04;33.86;101579.19;4799806;29;45618;-70
2021/06/14 09:56:55;;;;;;;;;5.50;5.50;;;;;26.00;33.21;101574.97;4831390;29;45342;-70
2021/06/14 09:59:28;;;;;;;;;6.00;5.25;;;;;26.03;33.75;101582.91;4812004;29;45413;-70
2021/06/14 10:02:21;;;;;;;;;8.25;6.75;;;;;26.07;33.86;101575.31;4803791;29;45336;-71
2021/06/14 10:04:48;;;;;;;;;5.50;5.25;;;;;26.11;34.05;101563.13;4815825;29;47289;-71
2021/06/14 10:07:17;;;;;;;;;8.00;6.00;;;;;26.17;33.30;101584.47;4814709;29;45398;-71
2021/06/14 10:09:49;;;;;;;;;7.25;7.25;;;;;26.17;33.64;101576.25;4815208;29;45314;-71
2021/06/14 10:12:25;;;;;;;;;6.50;5.00;;;;;26.22;33.96;101581.34;4814559;29;45453;-71
2021/06/14 10:14:51;;;;;;;;;5.00;5.00;;;;;26.26;33.75;101591.00;4800823;29;45454;-71
2021/06/14 10:17:29;;;;;;;;;8.00;5.00;;;;;26.28;33.04;101579.94;4815030;29;45261;-70
2021/06/14 10:19:54;;;;;;;;;5.50;5.00;;;;;26.31;33.48;101575.09;4831172;29;45268;-74
2021/06/14 10:22:19;;;;;;;;;7.00;6.50;;;;;26.34;33.41;101580.28;4814601;29;45457;-80
2021/06/14 10:24:45;;;;;;;;;8.00;6.25;;;;;26.36;32.89;101575.56;4814727;29;45355;-72
2021/06/14 10:27:10;;;;;;;;;6.00;6.00;;;;;26.42;32.94;101577.75;4798301;29;65843;-79
2021/06/14 10:29:36;;;;;;;;;7.00;5.50;;;;;26.46;32.14;101574.75;4798523;29;66675;-78
2021/06/14 10:32:01;;;;;;;;;4.25;4.25;;;;;26.50;32.22;101584.44;4798801;29;45469;-75
2021/06/14 10:34:27;;;;;;;;;5.50;4.75;;;;;26.43;32.08;101565.81;4814339;29;46046;-75
2021/06/14 10:36:53;;;;;;;;;4.75;4.75;;;;;26.49;32.05;101580.81;4799148;29;45298;-77
2021/06/14 10:39:24;;;;;;;;;5.00;4.25;;;;;26.54;31.22;101578.53;4829852;29;45393;-76
2021/06/14 10:41:49;;;;;;;;;7.00;5.00;;;;;26.56;31.54;101565.63;4813693;29;45268;-76
2021/06/14 10:44:15;;;;;;;;;6.00;5.00;;;;;26.53;31.68;101565.88;4813631;29;70255;-77
2021/06/14 10:46:44;;;;;;;;;6.00;6.00;;;;;26.60;30.93;101567.06;4813385;29;65284;-77
2021/06/14 10:49:12;;;;;;;;;5.25;5.25;;;;;26.70;31.60;101566.31;4799317;29;45353;-77
2021/06/14 10:51:37;;;;;;;;;6.75;6.75;;;;;26.73;31.21;101552.31;4787862;29;45280;-77
2021/06/14 10:54:09;;;;;;;;;6.00;5.25;;;;;26.84;31.25;101565.94;4829633;29;72656;-78
2021/06/14 10:56:36;;;;;;;;;5.50;5.25;;;;;26.94;31.22;101564.09;4799626;29;45599;-77
2021/06/14 10:59:03;;;;;;;;;5.00;5.00;;;;;26.98;31.01;101565.59;4830157;29;45198;-77
2021/06/14 11:01:36;;;;;;;;;7.25;6.00;;;;;26.99;31.02;101560.97;4830453;29;45475;-77
2021/06/14 11:04:03;;;;;;;;;5.00;5.00;;;;;27.06;30.86;101564.03;4829994;29;47032;-77
2021/06/14 11:06:30;;;;;;;;;5.00;5.00;;;;;27.00;30.75;101551.75;4830674;29;45231;-77
2021/06/14 11:09:03;;;;;;;;;5.00;5.00;;;;;27.07;30.66;101557.53;4830477;29;45328;-77
2021/06/14 11:11:29;;;;;;;;;6.75;5.75;;;;;27.12;30.45;101558.84;4830619;29;45157;-77
2021/06/14 11:13:54;;;;;;;;;6.00;5.50;;;;;27.11;31.17;101559.00;4830143;29;45426;-77
2021/06/14 11:16:20;;;;;;;;;6.75;6.75;;;;;27.08;31.04;101545.56;4830291;29;45362;-77
2021/06/14 11:18:47;;;;;;;;;6.00;4.00;;;;;27.07;30.62;101547.44;4830053;29;45477;-77
2021/06/14 11:21:19;;;;;;;;;5.75;5.50;;;;;27.18;30.36;101561.06;4824391;29;45491;-77
2021/06/14 11:23:47;;;;;;;;;6.50;4.75;;;;;27.19;30.42;101559.16;4830273;29;46372;-77
2021/06/14 11:26:13;;;;;;;;;5.00;5.00;;;;;27.19;30.21;101553.69;4830295;29;45403;-77